ADDS METAR Data INFO
IDs: Format: Raw Decoded Include TAF

Data at: 2145 UTC 15 Dec 2017

KGZN 152120Z AUTO VRB04KT 10SM CLR 12/M06 A3022 RMK AO2
KGZN 152100Z AUTO 00000KT 10SM CLR 12/M06 A3022 RMK AO2
KGZN 152040Z AUTO 30006KT 10SM CLR 12/M06 A3022 RMK AO2
KGZN 152020Z AUTO VRB04KT 10SM CLR 11/M06 A3023 RMK AO2
KGZN 152000Z AUTO VRB06G12KT 10SM CLR 11/M05 A3024 RMK AO2
KGZN 151940Z AUTO 33005KT 10SM CLR 11/M05 A3025 RMK AO2
KGZN 151920Z AUTO VRB05G11KT 10SM CLR 11/M05 A3027 RMK AO2
KGZN 151900Z AUTO 34006G11KT 10SM CLR 10/M05 A3029 RMK AO2
KGZN 151840Z AUTO VRB05G11KT 10SM CLR 10/M04 A3030 RMK AO2
KGZN 151820Z AUTO VRB06KT 10SM CLR 09/M04 A3032 RMK AO2
KGZN 151800Z AUTO 35007KT 320V020 10SM CLR 09/M05 A3033 RMK AO2
KGZN 151740Z AUTO VRB04KT 10SM CLR 09/M04 A3035 RMK AO2
KGZN 151720Z AUTO 02007KT 340V050 10SM CLR 08/M04 A3036 RMK AO2
KGZN 151700Z AUTO VRB03KT 10SM CLR 08/M03 A3035 RMK AO2
KGZN 151640Z AUTO 00000KT 10SM CLR 07/M03 A3035 RMK AO2
KGZN 151620Z AUTO 01005KT 10SM CLR 06/M02 A3034 RMK AO2
KGZN 151600Z AUTO 35005KT 10SM CLR 05/M02 A3035 RMK AO2
KGZN 151540Z AUTO 34007KT 10SM CLR 05/M03 A3035 RMK AO2
KGZN 151520Z AUTO 33006KT 10SM CLR 04/M03 A3035 RMK AO2
KGZN 151500Z AUTO 31005KT 10SM CLR 03/M03 A3035 RMK AO2
KGZN 151440Z AUTO 31004KT 10SM CLR 02/M03 A3034 RMK AO2
KGZN 151420Z AUTO 31004KT 10SM CLR 00/M03 A3033 RMK AO2
KGZN 151400Z AUTO 31003KT 10SM CLR M00/M04 A3033 RMK AO2
KGZN 151340Z AUTO 31004KT 10SM CLR M01/M04 A3033 RMK AO2
KGZN 151320Z AUTO 32004KT 10SM CLR M01/M04 A3032 RMK AO2
KGZN 151300Z AUTO 32004KT 10SM CLR M00/M04 A3032 RMK AO2
KGZN 151240Z AUTO 32004KT 10SM CLR M00/M04 A3032 RMK AO2
KGZN 151220Z AUTO 32005KT 10SM CLR 00/M04 A3032 RMK AO2
KGZN 151200Z AUTO 32005KT 10SM CLR 01/M04 A3031 RMK AO2
KGZN 151140Z AUTO 32006KT 10SM CLR 01/M04 A3030 RMK AO2
KGZN 151120Z AUTO 33008KT 10SM SCT029 SCT036 02/M04 A3030 RMK AO2
KGZN 151100Z AUTO 31006KT 10SM BKN029 OVC036 02/M04 A3029 RMK AO2
KGZN 151040Z AUTO 31006KT 10SM SCT030 BKN036 02/M04 A3028 RMK AO2
KGZN 151020Z AUTO 32007KT 10SM FEW033 SCT039 02/M04 A3028 RMK AO2
KGZN 151000Z AUTO 31009KT 10SM FEW033 FEW043 02/M04 A3028 RMK AO2
KGZN 150940Z AUTO 31009KT 10SM FEW042 02/M04 A3028 RMK AO2
KGZN 150920Z AUTO 31006KT 10SM FEW042 02/M04 A3027 RMK AO2
KGZN 150900Z AUTO 31005KT 10SM FEW039 FEW090 01/M04 A3026 RMK AO2
KGZN 150840Z AUTO 32005KT 10SM FEW037 FEW100 02/M04 A3025 RMK AO2
KGZN 150820Z AUTO 31004KT 10SM SCT035 SCT100 02/M04 A3026 RMK AO2
KGZN 150800Z AUTO 31005KT 10SM CLR 02/M04 A3025 RMK AO2
KGZN 150740Z AUTO 31005KT 10SM FEW110 02/M04 A3024 RMK AO2
KGZN 150720Z AUTO 31005KT 10SM FEW065 BKN120 01/M04 A3025 RMK AO2
KGZN 150700Z AUTO 31004KT 10SM BKN065 OVC120 02/M04 A3025 RMK AO2
KGZN 150640Z AUTO 30004KT 10SM OVC065 01/M04 A3026 RMK AO2
KGZN 150620Z AUTO 31004KT 10SM OVC070 02/M03 A3026 RMK AO2
KGZN 150600Z AUTO 31004KT 10SM OVC070 02/M04 A3026 RMK AO2
KGZN 150540Z AUTO 31003KT 10SM SCT060 OVC075 03/M03 A3027 RMK AO2
KGZN 150520Z AUTO 32003KT 10SM OVC060 03/M03 A3026 RMK AO2
KGZN 150500Z AUTO 35004KT 10SM BKN065 BKN075 BKN120 04/M03 A3025 RMK AO2
KGZN 150440Z AUTO 36004KT 10SM SCT060 BKN120 05/M03 A3026 RMK AO2
KGZN 150420Z AUTO 01005KT 10SM CLR 05/M03 A3025 RMK AO2
KGZN 150340Z AUTO 01004KT 10SM CLR 05/M03 A3024 RMK AO2
KGZN 150320Z AUTO 01004KT 10SM CLR 06/M03 A3023 RMK AO2
KGZN 150300Z AUTO 36004KT 10SM CLR 05/M03 A3022 RMK AO2
KGZN 150240Z AUTO 35006KT 10SM CLR 06/M03 A3020 RMK AO2
KGZN 150220Z AUTO 35005KT 10SM FEW085 06/M03 A3020 RMK AO2
KGZN 150200Z AUTO 01007KT 10SM FEW080 07/M03 A3019 RMK AO2
KGZN 150140Z AUTO 36006KT 10SM FEW080 07/M03 A3019 RMK AO2
KGZN 150120Z AUTO 01005KT 10SM SCT080 08/M04 A3018 RMK AO2
KGZN 150100Z AUTO 01006KT 10SM FEW034 FEW060 SCT080 08/M04 A3017 RMK AO2
KGZN 150040Z AUTO 01007KT 10SM FEW034 FEW060 SCT075 08/M04 A3016 RMK AO2
KGZN 150020Z AUTO 01007KT 10SM FEW065 SCT075 09/M04 A3015 RMK AO2
KGZN 150000Z AUTO 36006KT 10SM CLR 09/M04 A3014 RMK AO2
KGZN 142340Z AUTO 36007KT 10SM CLR 10/M04 A3012 RMK AO2
KGZN 142320Z AUTO 36009G16KT 10SM CLR 11/M04 A3011 RMK AO2
KGZN 142300Z AUTO 01009G16KT 10SM CLR 12/M04 A3011 RMK AO2
KGZN 142240Z AUTO 36010G17KT 10SM CLR 12/M04 A3010 RMK AO2
KGZN 142220Z AUTO 01013G19KT 10SM CLR 13/M05 A3009 RMK AO2
KGZN 142200Z AUTO 36013G19KT 10SM CLR 13/M05 A3009 RMK AO2
KGZN 142140Z AUTO 02014G20KT 10SM CLR 13/M05 A3008 RMK AO2
KGZN 142120Z AUTO 36014G20KT 10SM CLR 14/M05 A3008 RMK AO2
KGZN 142100Z AUTO 36012G20KT 10SM CLR 14/M04 A3007 RMK AO2
KGZN 142040Z AUTO 36016KT 10SM CLR 14/M04 A3007 RMK AO2
KGZN 142020Z AUTO 36010G21KT 10SM CLR 14/M03 A3006 RMK AO2
KGZN 142000Z AUTO 01013G19KT 10SM CLR 14/M04 A3006 RMK AO2
KGZN 141940Z AUTO 02012G18KT 10SM CLR 14/M03 A3006 RMK AO2
KGZN 141920Z AUTO 02012G18KT 10SM CLR 14/M03 A3007 RMK AO2
KGZN 141900Z AUTO 02011G17KT 10SM CLR 14/M03 A3008 RMK AO2
KGZN 141840Z AUTO 01013G18KT 10SM CLR 13/M03 A3008 RMK AO2
KGZN 141820Z AUTO 01011G18KT 10SM CLR 13/M03 A3009 RMK AO2
KGZN 141800Z AUTO 02013G18KT 10SM CLR 13/M03 A3011 RMK AO2
KGZN 141740Z AUTO 03011G16KT 10SM CLR 12/M03 A3011 RMK AO2
KGZN 141720Z AUTO 01013G18KT 10SM CLR 12/M04 A3012 RMK AO2
KGZN 141700Z AUTO 02011KT 10SM CLR 11/M04 A3011 RMK AO2
KGZN 141640Z AUTO 02012G18KT 10SM CLR 10/M04 A3011 RMK AO2
KGZN 141620Z AUTO 03011G17KT 10SM CLR 09/M04 A3011 RMK AO2
KGZN 141600Z AUTO 01010G16KT 10SM CLR 08/M04 A3010 RMK AO2
KGZN 141540Z AUTO 02009G18KT 10SM CLR 07/M04 A3010 RMK AO2
KGZN 141520Z AUTO 01010KT 350V050 10SM CLR 06/M04 A3009 RMK AO2
KGZN 141500Z AUTO 36012KT 10SM CLR 05/M05 A3008 RMK AO2
KGZN 141440Z AUTO 36011KT 10SM CLR 05/M04 A3007 RMK AO2
KGZN 141420Z AUTO 36010KT 10SM CLR 04/M04 A3005 RMK AO2
KGZN 141400Z AUTO 35008KT 10SM CLR 04/M04 A3005 RMK AO2
KGZN 141340Z AUTO 35007KT 10SM SCT047 03/M04 A3003 RMK AO2
KGZN 141320Z AUTO 36008KT 10SM OVC047 04/M04 A3002 RMK AO2
KGZN 141300Z AUTO 35006KT 10SM OVC047 04/M05 A3001 RMK AO2
KGZN 141240Z AUTO 35007KT 10SM OVC044 04/M06 A3000 RMK AO2
KGZN 141220Z AUTO 35006KT 10SM OVC042 04/M06 A2999 RMK AO2
KGZN 141200Z AUTO 35006KT 10SM OVC042 04/M06 A2998 RMK AO2
KGZN 141140Z AUTO 34006KT 10SM OVC042 04/M06 A2997 RMK AO2
KGZN 141120Z AUTO 33006KT 10SM OVC039 04/M06 A2996 RMK AO2
KGZN 141100Z AUTO 32006KT 10SM OVC038 04/M07 A2996 RMK AO2
KGZN 141040Z AUTO 32007KT 10SM OVC037 05/M07 A2995 RMK AO2
KGZN 141020Z AUTO 32006KT 10SM SCT036 BKN047 05/M07 A2994 RMK AO2
KGZN 141000Z AUTO 32006KT 10SM FEW049 05/M07 A2993 RMK AO2